createdAt,value
2018-04-01T00:01:32.548Z,92063.56
2018-04-01T00:03:58.669Z,92071.52
2018-04-01T00:06:24.988Z,92069.70
2018-04-01T00:08:51.182Z,92054.44
2018-04-01T00:11:17.313Z,92030.05
2018-04-01T00:13:43.481Z,92033.42
2018-04-01T00:16:09.742Z,92024.48
2018-04-01T00:18:35.898Z,92029.33
2018-04-01T00:21:02.058Z,92023.73
2018-04-01T00:23:28.263Z,92048.25
2018-04-01T00:25:54.384Z,92042.78
2018-04-01T00:28:20.506Z,92035.45
2018-04-01T00:30:46.683Z,92010.42
2018-04-01T00:33:12.779Z,92012.52
2018-04-01T00:35:38.875Z,92018.27
2018-04-01T00:38:05.114Z,92007.97
2018-04-01T00:40:31.318Z,91993.03
2018-04-01T00:42:57.707Z,91989.48
2018-04-01T00:45:23.977Z,92022.09
2018-04-01T00:47:50.118Z,92021.33
2018-04-01T00:50:16.284Z,92016.42
2018-04-01T00:52:42.558Z,92021.40
2018-04-01T00:55:08.695Z,92006.69
2018-04-01T00:57:34.790Z,92014.08
2018-04-01T01:00:01.107Z,92009.36
2018-04-01T01:02:27.244Z,92017.32
2018-04-01T01:04:53.364Z,91994.78
2018-04-01T01:07:19.647Z,91985.34
2018-04-01T01:09:45.788Z,91979.02
2018-04-01T01:12:11.967Z,91973.23
2018-04-01T01:14:38.163Z,91971.58
2018-04-01T01:17:04.332Z,91980.13
2018-04-01T01:19:30.506Z,91970.30
2018-04-01T01:21:56.700Z,91959.87
2018-04-01T01:24:22.842Z,91965.52
2018-04-01T01:26:49.082Z,91977.77
2018-04-01T01:29:15.285Z,91985.33
2018-04-01T01:31:41.439Z,91972.30
2018-04-01T01:34:07.575Z,91980.40
2018-04-01T01:36:37.494Z,91981.83
2018-04-01T01:39:03.617Z,91959.16
2018-04-01T01:41:29.800Z,91968.58
2018-04-01T01:43:55.970Z,91949.10
2018-04-01T01:46:22.251Z,91946.19
2018-04-01T01:48:48.402Z,91949.78
2018-04-01T01:51:14.529Z,91943.31
2018-04-01T01:53:41.331Z,91925.62
2018-04-01T01:56:07.526Z,91936.59
2018-04-01T01:58:33.641Z,91933.62
2018-04-01T02:00:59.811Z,91941.06
2018-04-01T02:03:25.977Z,91951.55
2018-04-01T02:05:52.108Z,91946.19
2018-04-01T02:08:18.320Z,91930.08
2018-04-01T02:10:44.415Z,91942.70
2018-04-01T02:13:10.656Z,91939.36
2018-04-01T02:15:36.801Z,91931.50
2018-04-01T02:18:02.964Z,91930.30
2018-04-01T02:20:29.103Z,91946.72
2018-04-01T02:22:55.220Z,91943.00
2018-04-01T02:25:21.360Z,91950.05
2018-04-01T02:27:47.573Z,91957.71
2018-04-01T02:30:13.675Z,91953.38
2018-04-01T02:32:39.799Z,91951.70
2018-04-01T02:35:06.487Z,91940.34
2018-04-01T02:37:32.693Z,91938.47
2018-04-01T02:39:58.837Z,91920.34
2018-04-01T02:42:25.039Z,91935.50
2018-04-01T02:44:51.161Z,91939.05
2018-04-01T02:47:17.343Z,91930.22
2018-04-01T02:49:43.576Z,91944.45
2018-04-01T02:52:09.762Z,91940.94
2018-04-01T02:54:35.930Z,91930.28
2018-04-01T02:57:02.377Z,91930.97
2018-04-01T02:59:28.509Z,91937.00
2018-04-01T03:01:54.638Z,91940.22
2018-04-01T03:04:20.800Z,91932.15
2018-04-01T03:06:47.099Z,91932.70
2018-04-01T03:09:13.265Z,91932.50
2018-04-01T03:11:39.414Z,91934.55
2018-04-01T03:14:05.498Z,91930.14
2018-04-01T03:16:31.593Z,91936.45
2018-04-01T03:18:57.771Z,91930.73
2018-04-01T03:21:23.987Z,91922.13
2018-04-01T03:23:51.053Z,91934.36
2018-04-01T03:26:17.692Z,91925.94
2018-04-01T03:28:43.765Z,91930.11
2018-04-01T03:31:09.860Z,91935.31
2018-04-01T03:33:36.000Z,91941.24
2018-04-01T03:36:02.309Z,91941.98
2018-04-01T03:38:29.395Z,91963.41
2018-04-01T03:40:55.683Z,91958.96
2018-04-01T03:43:21.797Z,91977.69
2018-04-01T03:45:47.893Z,91964.03
2018-04-01T03:48:14.038Z,91973.56
2018-04-01T03:50:40.283Z,91966.63
2018-04-01T03:53:06.469Z,91976.61
2018-04-01T03:55:32.699Z,91985.92
2018-04-01T03:57:58.792Z,91975.10
2018-04-01T04:00:25.054Z,92011.55
2018-04-01T04:02:51.327Z,92011.71
2018-04-01T04:05:17.519Z,92036.16
2018-04-01T04:07:43.803Z,92037.46
2018-04-01T04:10:10.011Z,92035.89
2018-04-01T04:12:36.137Z,92059.91
2018-04-01T04:15:02.319Z,92067.31
2018-04-01T04:17:28.601Z,92078.27
2018-04-01T04:19:54.867Z,92071.70
2018-04-01T04:22:20.970Z,92062.23
2018-04-01T04:24:47.145Z,92082.82
2018-04-01T04:27:13.402Z,92073.70
2018-04-01T04:29:39.574Z,92096.19
2018-04-01T04:32:06.008Z,92092.52
2018-04-01T04:34:32.338Z,92050.80
2018-04-01T04:36:59.388Z,92016.13
2018-04-01T04:39:25.544Z,91996.81
2018-04-01T04:41:51.633Z,91986.21
2018-04-01T04:44:23.276Z,91981.05
2018-04-01T04:46:49.484Z,92017.55
2018-04-01T04:49:15.711Z,92012.63
2018-04-01T04:51:53.614Z,91977.42
2018-04-01T04:54:19.774Z,92012.62
2018-04-01T04:56:45.914Z,92015.14
2018-04-01T04:59:12.138Z,92036.22
2018-04-01T05:01:38.226Z,92050.26
2018-04-01T05:04:04.831Z,92046.27
2018-04-01T05:06:31.022Z,92066.51
2018-04-01T05:08:57.106Z,92082.45
2018-04-01T05:11:23.535Z,92095.11
2018-04-01T05:13:50.302Z,92067.16
2018-04-01T05:16:16.565Z,92039.63
2018-04-01T05:18:43.175Z,92026.27
2018-04-01T05:21:09.535Z,92003.50
2018-04-01T05:23:36.077Z,92008.86
2018-04-01T05:26:02.290Z,92010.34
2018-04-01T05:28:28.731Z,92028.86
2018-04-01T05:30:55.270Z,92039.79
2018-04-01T05:33:21.915Z,92050.87
2018-04-01T05:35:48.227Z,92071.53
2018-04-01T05:38:14.567Z,92064.29
2018-04-01T05:40:41.648Z,92071.84
2018-04-01T05:43:09.697Z,92068.72
2018-04-01T05:45:36.327Z,92060.56
2018-04-01T05:48:04.084Z,92047.43
2018-04-01T05:50:30.421Z,92046.95
2018-04-01T05:52:56.540Z,92048.42
2018-04-01T05:55:22.618Z,92035.53
2018-04-01T05:57:48.823Z,92015.31
2018-04-01T06:00:15.000Z,92024.44
2018-04-01T06:02:41.235Z,92030.14
2018-04-01T06:05:07.353Z,92030.55
2018-04-01T06:07:33.737Z,92024.25
2018-04-01T06:09:59.914Z,92037.44
2018-04-01T06:12:26.142Z,92031.39
2018-04-01T06:14:52.660Z,92021.96
2018-04-01T06:17:18.929Z,92007.46
2018-04-01T06:19:45.205Z,92012.00
2018-04-01T06:22:11.375Z,92000.78
2018-04-01T06:24:38.137Z,92017.14
2018-04-01T06:27:04.383Z,92016.81
2018-04-01T06:29:30.548Z,92009.47
2018-04-01T06:31:56.751Z,92026.45
2018-04-01T06:34:22.981Z,92027.11
2018-04-01T06:36:49.172Z,92021.63
2018-04-01T06:39:15.442Z,92032.52
2018-04-01T06:41:41.684Z,92011.53
2018-04-01T06:44:08.852Z,92020.84
2018-04-01T06:46:35.095Z,92011.59
2018-04-01T06:49:01.385Z,92004.69
2018-04-01T06:51:27.631Z,92005.72
2018-04-01T06:53:53.738Z,92008.81
2018-04-01T06:56:19.906Z,92018.47
2018-04-01T06:58:46.166Z,92035.63
2018-04-01T07:01:12.529Z,92025.02
2018-04-01T07:03:38.771Z,92047.48
2018-04-01T07:06:05.621Z,92051.49
2018-04-01T07:08:32.361Z,92047.30
2018-04-01T07:10:58.673Z,92033.81
2018-04-01T07:13:25.052Z,92068.67
2018-04-01T07:15:51.536Z,92077.05
2018-04-01T07:18:17.809Z,92076.98
2018-04-01T07:20:44.004Z,92083.97
2018-04-01T07:23:11.738Z,92081.76
2018-04-01T07:25:38.230Z,92088.80
2018-04-01T07:28:04.460Z,92091.56
2018-04-01T07:30:30.695Z,92103.28
2018-04-01T07:32:57.031Z,92102.16
2018-04-01T07:35:23.295Z,92108.78
2018-04-01T07:37:49.935Z,92104.51
2018-04-01T07:40:16.458Z,92117.58
2018-04-01T07:42:42.635Z,92109.58
2018-04-01T07:45:09.386Z,92121.13
2018-04-01T07:47:35.822Z,92109.75
2018-04-01T07:50:02.080Z,92126.23
2018-04-01T07:52:28.385Z,92131.83
2018-04-01T07:54:54.591Z,92132.70
2018-04-01T07:57:21.198Z,92130.42
2018-04-01T07:59:47.617Z,92130.42
2018-04-01T08:02:13.911Z,92136.85
2018-04-01T08:04:41.053Z,92142.28
2018-04-01T08:07:07.786Z,92139.73
2018-04-01T08:09:34.140Z,92138.05
2018-04-01T08:12:00.284Z,92140.36
2018-04-01T08:14:26.458Z,92135.89
2018-04-01T08:16:52.630Z,92142.31
2018-04-01T08:19:19.114Z,92139.18
2018-04-01T08:21:45.337Z,92139.94
2018-04-01T08:24:11.876Z,92140.77
2018-04-01T08:26:38.468Z,92130.08
2018-04-01T08:29:05.056Z,92127.51
2018-04-01T08:31:31.292Z,92127.87
2018-04-01T08:33:57.429Z,92135.02
2018-04-01T08:36:23.668Z,92133.06
2018-04-01T08:38:49.968Z,92128.23
2018-04-01T08:41:16.141Z,92128.23
2018-04-01T08:43:42.651Z,92125.91
2018-04-01T08:46:08.870Z,92138.89
2018-04-01T08:48:35.311Z,92129.91
2018-04-01T08:51:01.607Z,92134.49
2018-04-01T08:53:27.831Z,92135.80
2018-04-01T08:55:54.042Z,92126.06
2018-04-01T08:58:20.352Z,92137.27
2018-04-01T09:00:46.721Z,92131.46
2018-04-01T09:03:12.860Z,92122.20
2018-04-01T09:05:39.244Z,92124.47
2018-04-01T09:08:05.769Z,92125.53
2018-04-01T09:10:32.153Z,92120.21
2018-04-01T09:12:58.507Z,92132.15
2018-04-01T09:15:25.700Z,92122.29
2018-04-01T09:17:52.123Z,92117.17
2018-04-01T09:20:18.518Z,92115.53
2018-04-01T09:22:44.807Z,92113.75
2018-04-01T09:25:11.006Z,92116.82
2018-04-01T09:27:37.453Z,92112.78
2018-04-01T09:30:03.701Z,92114.97
2018-04-01T09:32:30.048Z,92117.93
2018-04-01T09:34:56.639Z,92108.64
2018-04-01T09:37:23.085Z,92117.00
2018-04-01T09:39:49.674Z,92116.98
2018-04-01T09:42:16.089Z,92121.03
2018-04-01T09:44:46.644Z,92116.27
2018-04-01T09:47:13.383Z,92099.88
2018-04-01T09:49:40.249Z,92089.05
2018-04-01T09:52:09.491Z,92090.24
2018-04-01T09:54:40.184Z,92090.42
2018-04-01T09:57:06.627Z,92095.11
2018-04-01T09:59:32.939Z,92091.99
2018-04-01T10:01:59.923Z,92086.03
2018-04-01T10:04:26.970Z,92088.49
2018-04-01T10:06:55.401Z,92090.95
2018-04-01T10:09:22.178Z,92092.45
2018-04-01T10:11:48.764Z,92088.95
2018-04-01T10:14:15.875Z,92090.22
2018-04-01T10:16:42.749Z,92084.60
2018-04-01T10:19:09.540Z,92066.69
2018-04-01T10:21:36.076Z,92078.34
2018-04-01T10:24:03.185Z,92085.50
2018-04-01T10:26:30.212Z,92085.61
2018-04-01T10:28:58.036Z,92098.67
2018-04-01T10:31:25.390Z,92107.05
2018-04-01T10:33:53.336Z,92109.63
2018-04-01T10:36:20.476Z,92112.19
2018-04-01T10:38:47.086Z,92106.03
2018-04-01T10:41:13.588Z,92103.91
2018-04-01T10:43:42.950Z,92105.30
2018-04-01T10:46:09.678Z,92076.58
2018-04-01T10:48:36.597Z,92087.66
2018-04-01T10:51:03.776Z,92084.53
2018-04-01T10:53:30.839Z,92089.55
2018-04-01T10:55:58.921Z,92097.98
2018-04-01T10:58:27.471Z,92100.81
2018-04-01T11:01:18.532Z,92094.47
2018-04-01T11:03:46.456Z,92075.47
2018-04-01T11:06:16.045Z,92082.78
2018-04-01T11:08:45.730Z,92071.27
2018-04-01T11:11:14.331Z,92070.77
2018-04-01T11:13:44.167Z,92071.08
2018-04-01T11:16:11.498Z,92078.34
2018-04-01T11:18:38.745Z,92070.94
2018-04-01T11:21:05.466Z,92071.14
2018-04-01T11:23:32.127Z,92067.06
2018-04-01T11:25:59.400Z,92080.83
2018-04-01T11:28:26.037Z,92105.36
2018-04-01T11:30:52.378Z,92139.25
2018-04-01T11:33:18.858Z,92164.95
2018-04-01T11:35:48.001Z,92172.43
2018-04-01T11:38:20.488Z,92173.88
2018-04-01T11:40:48.201Z,92182.58
2018-04-01T11:43:19.086Z,92185.83
2018-04-01T11:45:46.231Z,92185.20
2018-04-01T11:48:13.816Z,92187.06
2018-04-01T11:50:47.174Z,92187.09
2018-04-01T11:53:13.780Z,92199.61
2018-04-01T11:55:46.682Z,92199.40
2018-04-01T11:58:19.173Z,92205.26
2018-04-01T12:00:51.342Z,92199.42
2018-04-01T12:03:19.070Z,92187.63
2018-04-01T12:05:45.682Z,92196.77
2018-04-01T12:08:15.408Z,92188.92
2018-04-01T12:10:46.373Z,92183.57
2018-04-01T12:13:15.398Z,92169.80
2018-04-01T12:15:44.654Z,92175.69
2018-04-01T12:18:11.604Z,92160.81
2018-04-01T12:20:38.474Z,92159.02
2018-04-01T12:23:06.269Z,92151.55
2018-04-01T12:25:33.479Z,92152.03
2018-04-01T12:28:04.069Z,92159.93
2018-04-01T12:30:31.385Z,92161.34
2018-04-01T12:32:57.744Z,92163.23
2018-04-01T12:35:24.222Z,92167.09
2018-04-01T12:37:50.558Z,92168.09
2018-04-01T12:40:17.041Z,92167.83
2018-04-01T12:42:44.026Z,92171.52
2018-04-01T12:45:12.997Z,92170.14
2018-04-01T12:47:39.924Z,92165.48
2018-04-01T12:50:06.632Z,92166.20
2018-04-01T12:52:33.703Z,92162.20
2018-04-01T12:55:00.006Z,92147.70
2018-04-01T12:57:26.234Z,92151.29
2018-04-01T12:59:54.473Z,92158.39
2018-04-01T13:02:21.766Z,92156.35
2018-04-01T13:04:48.179Z,92157.34
2018-04-01T13:07:14.660Z,92156.51
2018-04-01T13:09:41.465Z,92160.47
2018-04-01T13:12:08.050Z,92168.01
2018-04-01T13:14:34.668Z,92157.31
2018-04-01T13:17:01.100Z,92161.83
2018-04-01T13:19:27.842Z,92159.56
2018-04-01T13:21:54.243Z,92173.61
2018-04-01T13:24:20.523Z,92175.08
2018-04-01T13:26:46.774Z,92186.76
2018-04-01T13:29:13.286Z,92193.27
2018-04-01T13:31:39.817Z,92191.44
2018-04-01T13:34:06.316Z,92186.44
2018-04-01T13:36:32.895Z,92196.94
2018-04-01T13:38:59.508Z,92211.13
2018-04-01T13:41:25.826Z,92214.19
2018-04-01T13:43:52.128Z,92207.62
2018-04-01T13:46:18.598Z,92211.52
2018-04-01T13:48:44.990Z,92204.31
2018-04-01T13:51:11.391Z,92193.05
2018-04-01T13:53:37.682Z,92201.58
2018-04-01T13:56:04.477Z,92197.35
2018-04-01T13:58:30.999Z,92204.02
2018-04-01T14:00:57.959Z,92211.03
2018-04-01T14:03:24.321Z,92214.04
2018-04-01T14:05:50.806Z,92218.31
2018-04-01T14:08:17.349Z,92216.83
2018-04-01T14:10:43.574Z,92228.91
2018-04-01T14:13:09.871Z,92243.61
2018-04-01T14:15:36.232Z,92284.02
2018-04-01T14:18:02.553Z,92298.09
2018-04-01T14:20:28.809Z,92305.68
2018-04-01T14:22:55.105Z,92299.03
2018-04-01T14:25:21.707Z,92301.40
2018-04-01T14:27:49.100Z,92296.66
2018-04-01T14:30:15.535Z,92296.83
2018-04-01T14:32:41.796Z,92303.77
2018-04-01T14:35:08.242Z,92298.91
2018-04-01T14:37:34.447Z,92290.28
2018-04-01T14:40:00.647Z,92291.13
2018-04-01T14:42:26.937Z,92282.30
2018-04-01T14:44:53.187Z,92275.72
2018-04-01T14:47:20.174Z,92269.13
2018-04-01T14:49:46.542Z,92265.48
2018-04-01T14:52:12.808Z,92267.34
2018-04-01T14:54:40.151Z,92273.60
2018-04-01T14:57:06.789Z,92268.73
2018-04-01T14:59:33.152Z,92277.35
2018-04-01T15:01:59.516Z,92285.30
2018-04-01T15:04:25.922Z,92292.63
2018-04-01T15:06:53.471Z,92300.41
2018-04-01T15:09:19.911Z,92300.15
2018-04-01T15:11:46.374Z,92303.00
2018-04-01T15:14:12.824Z,92310.08
2018-04-01T15:16:39.011Z,92304.59
2018-04-01T15:19:05.307Z,92299.23
2018-04-01T15:21:31.770Z,92301.58
2018-04-01T15:23:58.173Z,92307.67
2018-04-01T15:26:24.472Z,92308.20
2018-04-01T15:28:50.672Z,92308.20
2018-04-01T15:31:16.913Z,92321.48
2018-04-01T15:33:43.207Z,92317.06
2018-04-01T15:36:09.652Z,92317.37
2018-04-01T15:38:35.988Z,92320.68
2018-04-01T15:41:03.667Z,92331.83
2018-04-01T15:43:30.856Z,92334.73
2018-04-01T15:45:57.412Z,92350.05
2018-04-01T15:48:24.623Z,92364.86
2018-04-01T15:50:51.920Z,92372.13
2018-04-01T15:53:18.655Z,92366.61
2018-04-01T15:55:46.949Z,92357.16
2018-04-01T15:58:14.226Z,92363.55
2018-04-01T16:00:40.937Z,92368.27
2018-04-01T16:03:08.457Z,92366.67
2018-04-01T16:05:35.808Z,92371.94
2018-04-01T16:08:02.460Z,92380.76
2018-04-01T16:10:29.478Z,92379.13
2018-04-01T16:12:57.335Z,92384.24
2018-04-01T16:15:25.680Z,92395.50
2018-04-01T16:17:54.709Z,92400.58
2018-04-01T16:20:21.393Z,92403.34
2018-04-01T16:22:49.828Z,92410.39
2018-04-01T16:25:16.536Z,92414.34
2018-04-01T16:27:44.544Z,92446.27
2018-04-01T16:30:11.271Z,92458.11
2018-04-01T16:32:37.746Z,92480.67
2018-04-01T16:35:04.388Z,92497.91
2018-04-01T16:37:31.018Z,92494.72
2018-04-01T16:39:57.463Z,92497.83
2018-04-01T16:42:24.244Z,92514.98
2018-04-01T16:44:50.819Z,92533.23
2018-04-01T16:47:17.771Z,92545.44
2018-04-01T16:49:44.762Z,92548.45
2018-04-01T16:52:12.340Z,92547.67
2018-04-01T16:54:39.066Z,92555.52
2018-04-01T16:57:09.364Z,92554.55
2018-04-01T16:59:36.145Z,92560.14
2018-04-01T17:02:02.693Z,92568.17
2018-04-01T17:04:29.079Z,92572.48
2018-04-01T17:06:56.556Z,92579.23
2018-04-01T17:09:23.587Z,92576.23
2018-04-01T17:11:50.971Z,92570.61
2018-04-01T17:14:17.409Z,92582.69
2018-04-01T17:16:46.113Z,92583.23
2018-04-01T17:19:12.430Z,92590.47
2018-04-01T17:21:39.218Z,92588.02
2018-04-01T17:24:05.794Z,92589.62
2018-04-01T17:26:32.259Z,92599.30
2018-04-01T17:28:59.030Z,92598.98
2018-04-01T17:31:26.038Z,92597.98
2018-04-01T17:33:53.892Z,92602.36
2018-04-01T17:36:20.430Z,92604.88
2018-04-01T17:38:47.832Z,92597.02
2018-04-01T17:41:14.502Z,92605.98
2018-04-01T17:43:41.477Z,92615.99
2018-04-01T17:46:08.494Z,92611.55
2018-04-01T17:48:34.945Z,92614.00
2018-04-01T17:51:03.060Z,92613.20
2018-04-01T17:53:29.545Z,92607.78
2018-04-01T17:55:57.408Z,92587.57
2018-04-01T17:58:23.684Z,92587.13
2018-04-01T18:00:50.583Z,92600.78
2018-04-01T18:03:17.578Z,92613.17
2018-04-01T18:05:44.217Z,92620.59
2018-04-01T18:08:11.280Z,92626.58
2018-04-01T18:10:37.974Z,92631.69
2018-04-01T18:13:04.537Z,92642.06
2018-04-01T18:15:30.981Z,92644.98
2018-04-01T18:17:57.877Z,92643.19
2018-04-01T18:20:25.247Z,92640.41
2018-04-01T18:22:51.845Z,92634.56
2018-04-01T18:25:18.450Z,92628.84
2018-04-01T18:27:44.872Z,92638.89
2018-04-01T18:30:11.711Z,92643.25
2018-04-01T18:32:38.466Z,92650.57
2018-04-01T18:35:04.951Z,92643.75
2018-04-01T18:37:32.298Z,92644.94
2018-04-01T18:39:58.965Z,92645.59
2018-04-01T18:42:25.575Z,92653.37
2018-04-01T18:44:52.002Z,92652.03
2018-04-01T18:47:18.287Z,92654.69
2018-04-01T18:49:45.373Z,92663.41
2018-04-01T18:52:12.793Z,92669.30
2018-04-01T18:54:39.487Z,92669.42
2018-04-01T18:57:05.834Z,92676.27
2018-04-01T18:59:32.639Z,92678.25
2018-04-01T19:01:59.020Z,92676.86
2018-04-01T19:04:25.424Z,92680.16
2018-04-01T19:06:51.687Z,92683.06
2018-04-01T19:09:17.861Z,92688.66
2018-04-01T19:11:44.284Z,92690.83
2018-04-01T19:14:10.701Z,92695.48
2018-04-01T19:16:49.450Z,92699.61
2018-04-01T19:19:16.306Z,92702.29
2018-04-01T19:21:42.831Z,92708.88
2018-04-01T19:24:09.724Z,92713.77
2018-04-01T19:26:36.892Z,92711.72
2018-04-01T19:29:03.459Z,92718.81
2018-04-01T19:31:31.250Z,92716.30
2018-04-01T19:33:58.083Z,92720.52
2018-04-01T19:36:25.523Z,92724.83
2018-04-01T19:38:52.900Z,92725.30
2018-04-01T19:41:19.791Z,92729.70
2018-04-01T19:43:46.668Z,92734.11
2018-04-01T19:46:13.317Z,92733.78
2018-04-01T19:48:39.964Z,92735.80
2018-04-01T19:51:07.033Z,92741.84
2018-04-01T19:53:33.987Z,92746.52
2018-04-01T19:56:00.601Z,92747.88
2018-04-01T19:58:27.270Z,92754.45
2018-04-01T20:00:54.243Z,92751.55
2018-04-01T20:03:20.924Z,92765.39
2018-04-01T20:05:47.965Z,92772.36
2018-04-01T20:08:14.637Z,92773.31
2018-04-01T20:10:41.339Z,92775.20
2018-04-01T20:13:08.328Z,92786.53
2018-04-01T20:15:36.077Z,92784.03
2018-04-01T20:18:02.858Z,92787.81
2018-04-01T20:20:29.360Z,92795.08
2018-04-01T20:22:55.868Z,92792.97
2018-04-01T20:25:24.299Z,92788.28
2018-04-01T20:27:51.533Z,92786.85
2018-04-01T20:30:18.136Z,92789.32
2018-04-01T20:32:44.827Z,92791.99
2018-04-01T20:35:12.986Z,92785.75
2018-04-01T20:37:41.568Z,92796.94
2018-04-01T20:40:08.883Z,92800.61
2018-04-01T20:42:35.396Z,92802.42
2018-04-01T20:45:01.914Z,92807.77
2018-04-01T20:47:28.332Z,92809.07
2018-04-01T20:49:55.179Z,92809.12
2018-04-01T20:52:22.296Z,92814.19
2018-04-01T20:54:49.554Z,92812.46
2018-04-01T20:57:16.401Z,92814.16
2018-04-01T20:59:42.931Z,92811.77
2018-04-01T21:02:09.834Z,92814.77
2018-04-01T21:04:36.720Z,92818.72
2018-04-01T21:07:03.251Z,92810.41
2018-04-01T21:09:29.852Z,92818.34
2018-04-01T21:11:56.269Z,92821.89
2018-04-01T21:14:22.793Z,92831.08
2018-04-01T21:16:49.235Z,92834.46
2018-04-01T21:19:15.772Z,92836.77
2018-04-01T21:21:42.209Z,92839.91
2018-04-01T21:24:08.702Z,92842.25
2018-04-01T21:26:35.052Z,92847.73
2018-04-01T21:29:01.487Z,92852.34
2018-04-01T21:31:28.077Z,92859.34
2018-04-01T21:33:54.604Z,92859.87
2018-04-01T21:36:21.007Z,92861.11
2018-04-01T21:38:47.464Z,92862.29
2018-04-01T21:41:13.835Z,92864.93
2018-04-01T21:43:40.250Z,92862.64
2018-04-01T21:46:06.688Z,92866.98
2018-04-01T21:48:33.273Z,92869.59
2018-04-01T21:50:59.742Z,92864.17
2018-04-01T21:53:26.188Z,92862.56
2018-04-01T21:55:52.958Z,92868.39
2018-04-01T21:58:19.497Z,92872.01
2018-04-01T22:00:45.952Z,92877.35
2018-04-01T22:03:12.673Z,92886.81
2018-04-01T22:05:39.202Z,92891.07
2018-04-01T22:08:05.551Z,92894.73
2018-04-01T22:10:32.037Z,92900.44
2018-04-01T22:12:58.482Z,92903.29
2018-04-01T22:15:24.951Z,92910.69
2018-04-01T22:17:51.427Z,92907.70
2018-04-01T22:20:17.855Z,92909.80
2018-04-01T22:22:56.569Z,92904.48
2018-04-01T22:25:22.981Z,92909.05
2018-04-01T22:27:49.354Z,92914.84
2018-04-01T22:30:15.807Z,92916.22
2018-04-01T22:32:42.182Z,92924.48
2018-04-01T22:35:08.616Z,92921.55
2018-04-01T22:37:35.028Z,92921.30
2018-04-01T22:40:01.478Z,92926.73
2018-04-01T22:42:27.917Z,92929.09
2018-04-01T22:44:54.380Z,92932.94
2018-04-01T22:47:21.091Z,92931.10
2018-04-01T22:49:47.683Z,92930.98
2018-04-01T22:52:14.121Z,92928.00
2018-04-01T22:54:40.486Z,92928.53
2018-04-01T22:57:06.932Z,92925.23
2018-04-01T22:59:33.399Z,92913.86
2018-04-01T23:01:59.782Z,92915.43
2018-04-01T23:04:26.189Z,92909.27
2018-04-01T23:06:52.781Z,92909.96
2018-04-01T23:09:19.237Z,92912.27
2018-04-01T23:11:46.324Z,92913.58
2018-04-01T23:14:12.727Z,92915.22
2018-04-01T23:16:39.096Z,92920.12
2018-04-01T23:19:05.665Z,92924.92
2018-04-01T23:21:32.042Z,92927.07
2018-04-01T23:23:58.352Z,92934.06
2018-04-01T23:26:24.789Z,92948.47
2018-04-01T23:28:51.332Z,92950.97
2018-04-01T23:31:17.676Z,92943.55
2018-04-01T23:33:44.115Z,92947.34
2018-04-01T23:36:10.543Z,92945.39
2018-04-01T23:38:36.921Z,92951.29
2018-04-01T23:41:03.250Z,92946.98
2018-04-01T23:43:29.631Z,92947.09
2018-04-01T23:45:56.037Z,92948.33
2018-04-01T23:48:22.466Z,92946.56
2018-04-01T23:50:48.985Z,92942.36
2018-04-01T23:53:15.385Z,92949.47
2018-04-01T23:55:41.772Z,92945.47
2018-04-01T23:58:08.176Z,92947.25
